Time;durP1;ratioP1;P1;durP2;ratioP2;P2;SDS_P1;SDS_P2;PMS_P1;PMS_P2;Temp;Humidity;BMP_temperature;BMP_pressure;BME280_temperature;BME280_humidity;BME280_pressure;Samples;Min_cycle;Max_cycle;Signal;HPM_P1;HPM_P2
2021/08/12 05:34:01;;;;;;;8.80;4.51;;;;;;;23.13;49.40;99313.22;396755;104;1988011;-73
2021/08/12 05:35:08;;;;;;;9.37;4.63;;;;;;;23.10;48.58;99309.15;357579;106;2400043;-71
2021/08/12 05:36:14;;;;;;;10.47;5.03;;;;;;;23.21;48.50;99313.39;373144;106;1961987;-72
2021/08/12 05:37:20;;;;;;;12.90;5.33;;;;;;;23.28;48.14;99309.43;372268;109;1962057;-72
2021/08/12 05:38:33;;;;;;;8.68;4.40;;;;;;;23.30;47.87;99309.95;356725;104;2020957;-73
2021/08/12 05:39:39;;;;;;;10.65;5.28;;;;;;;23.21;47.98;99321.66;373489;107;1969803;-73
2021/08/12 05:40:52;;;;;;;9.27;4.69;;;;;;;23.37;48.11;99307.66;403141;104;1985904;-72
2021/08/12 05:41:58;;;;;;;8.32;4.18;;;;;;;23.48;47.71;99312.69;329436;105;2889991;-73
2021/08/12 05:43:21;;;;;;;14.46;4.97;;;;;;;23.53;47.09;99316.50;374105;107;1962034;-73
2021/08/12 05:44:34;;;;;;;10.74;4.86;;;;;;;23.78;47.10;99315.27;343108;104;2196966;-73
2021/08/12 05:45:41;;;;;;;11.32;4.73;;;;;;;23.66;46.97;99322.06;375754;105;1961947;-73
2021/08/12 05:46:46;;;;;;;10.60;4.85;;;;;;;23.55;47.11;99305.97;376528;106;1962016;-73
2021/08/12 05:47:53;;;;;;;11.37;4.76;;;;;;;23.66;46.98;99319.30;378873;106;1962983;-73
2021/08/12 05:49:05;;;;;;;11.02;5.09;;;;;;;23.73;46.64;99307.90;399252;104;1962037;-72
2021/08/12 05:50:11;;;;;;;11.63;4.77;;;;;;;23.71;46.64;99318.41;376339;107;1969988;-73
2021/08/12 05:51:23;;;;;;;8.90;4.15;;;;;;;23.78;46.37;99321.61;377539;110;2071973;-72
2021/08/12 05:52:29;;;;;;;8.12;4.08;;;;;;;23.53;46.24;99303.53;351965;110;2950986;-73
2021/08/12 05:54:38;;;;;;;8.78;4.00;;;;;;;23.59;46.27;99305.07;332722;111;2554901;-73
2021/08/12 05:56:25;;;;;;;12.88;4.41;;;;;;;23.89;45.50;99305.70;386824;107;2044746;-71
2021/08/12 05:58:23;;;;;;;9.51;3.53;;;;;;;23.81;45.44;99314.66;352680;114;1961031;-72
2021/08/12 05:59:55;;;;;;;10.77;4.30;;;;;;;24.12;44.85;99317.70;395684;106;2035868;-72
2021/08/12 06:01:01;;;;;;;10.61;4.15;;;;;;;24.10;44.74;99309.72;346635;106;2474875;-72
2021/08/12 06:02:07;;;;;;;6.94;3.53;;;;;;;24.19;44.84;99317.31;369736;107;1962823;-73
2021/08/12 06:03:21;;;;;;;8.88;3.76;;;;;;;24.27;44.03;99327.66;389557;104;1986937;-75
2021/08/12 06:04:28;;;;;;;11.82;3.94;;;;;;;24.10;44.10;99317.18;371447;109;1961808;-74
2021/08/12 06:05:42;;;;;;;9.42;4.66;;;;;;;24.17;44.02;99300.24;392803;106;1987021;-75
2021/08/12 06:06:48;;;;;;;15.89;4.59;;;;;;;24.16;44.25;99312.38;370198;108;1962974;-76
2021/08/12 06:08:14;;;;;;;11.61;4.24;;;;;;;24.16;44.39;99309.63;335796;109;2485961;-75
2021/08/12 06:09:28;;;;;;;12.79;5.61;;;;;;;24.36;44.27;99301.77;340077;106;2850005;-74
2021/08/12 06:10:34;;;;;;;10.39;4.10;;;;;;;24.27;44.27;99317.42;363524;109;1963704;-75
2021/08/12 06:11:47;;;;;;;16.45;4.31;;;;;;;24.33;43.96;99316.19;394567;103;1961987;-75
2021/08/12 06:12:54;;;;;;;9.45;4.10;;;;;;;24.25;43.37;99305.05;360158;105;1970018;-75
2021/08/12 06:14:19;;;;;;;10.96;4.00;;;;;;;24.15;43.59;99311.57;341866;109;1962040;-74
2021/08/12 06:15:26;;;;;;;9.00;3.82;;;;;;;24.31;43.26;99323.95;369975;109;1962027;-74
2021/08/12 06:16:39;;;;;;;11.01;4.58;;;;;;;24.43;43.40;99315.18;355199;106;2536933;-75
2021/08/12 06:17:52;;;;;;;9.32;4.19;;;;;;;24.43;43.04;99317.13;357051;108;1961959;-75
2021/08/12 06:19:04;;;;;;;8.61;3.14;;;;;;;24.44;43.14;99324.28;334842;104;2287981;-76
2021/08/12 06:20:12;;;;;;;15.16;3.64;;;;;;;24.40;42.90;99312.20;359562;105;1960890;-76
2021/08/12 06:21:35;;;;;;;11.71;3.96;;;;;;;24.66;42.69;99318.88;352806;109;1962053;-75
2021/08/12 06:22:41;;;;;;;9.30;3.82;;;;;;;24.60;42.94;99314.59;365221;110;1962095;-74
2021/08/12 06:23:53;;;;;;;17.91;5.25;;;;;;;24.81;42.84;99312.22;391215;104;2072004;-75
2021/08/12 06:24:59;;;;;;;11.97;3.89;;;;;;;24.77;42.85;99328.60;373563;105;1969907;-75
2021/08/12 06:26:11;;;;;;;13.32;4.32;;;;;;;24.99;42.54;99319.55;386670;106;2071989;-73
2021/08/12 06:27:18;;;;;;;12.67;4.04;;;;;;;24.97;42.32;99346.67;368004;109;1961979;-74
2021/08/12 06:28:43;;;;;;;12.27;3.68;;;;;;;24.98;42.26;99326.22;334438;111;1962013;-76
2021/08/12 06:29:49;;;;;;;9.42;4.58;;;;;;;25.00;42.22;99332.23;362981;111;1961913;-75
2021/08/12 06:31:02;;;;;;;9.71;3.45;;;;;;;25.02;42.33;99337.47;364454;101;2647008;-74
2021/08/12 06:32:08;;;;;;;11.41;3.93;;;;;;;24.87;41.98;99337.78;382557;105;1962013;-75
2021/08/12 06:33:20;;;;;;;10.13;3.62;;;;;;;25.12;41.76;99330.91;394500;103;1986915;-74
2021/08/12 06:34:32;;;;;;;9.33;3.91;;;;;;;25.00;41.62;99353.53;326403;106;2291996;-74
2021/08/12 06:35:56;;;;;;;10.23;3.82;;;;;;;24.90;41.51;99353.74;371181;107;1961880;-75
2021/08/12 06:37:02;;;;;;;9.61;3.78;;;;;;;24.68;41.69;99352.53;368659;108;1963058;-75
2021/08/12 06:38:14;;;;;;;10.23;3.92;;;;;;;24.81;41.94;99336.27;384293;104;2072041;-75
2021/08/12 06:39:20;;;;;;;10.33;3.74;;;;;;;24.78;42.07;99335.75;366348;109;1962049;-74
2021/08/12 06:40:33;;;;;;;7.72;3.59;;;;;;;24.91;41.98;99334.11;394413;104;1986073;-76
2021/08/12 06:41:42;;;;;;;7.41;3.36;;;;;;;24.92;41.58;99334.92;343119;107;2541009;-76
2021/08/12 06:43:06;;;;;;;8.53;3.19;;;;;;;24.96;41.78;99334.00;369944;107;1961970;-76
2021/08/12 06:44:18;;;;;;;7.24;3.50;;;;;;;25.26;41.57;99336.42;402278;101;2071969;-75
2021/08/12 06:45:25;;;;;;;10.17;3.43;;;;;;;25.14;41.27;99347.97;332420;103;2860076;-75
2021/08/12 06:46:39;;;;;;;16.58;4.17;;;;;;;25.25;41.61;99348.62;393940;103;1986923;-74
2021/08/12 06:47:48;;;;;;;10.09;4.02;;;;;;;25.03;41.80;99341.85;375420;107;1963963;-76
2021/08/12 06:49:00;;;;;;;12.65;3.71;;;;;;;25.14;41.80;99339.67;359146;104;2644903;-76
2021/08/12 06:50:10;;;;;;;19.69;3.68;;;;;;;25.01;42.08;99341.37;378979;105;1961964;-74
2021/08/12 06:51:16;;;;;;;9.49;3.66;;;;;;;24.78;42.02;99357.85;345974;105;2559050;-75
2021/08/12 06:52:22;;;;;;;9.94;3.63;;;;;;;24.73;42.00;99338.62;373729;105;1961969;-75
2021/08/12 06:53:27;;;;;;;7.78;3.76;;;;;;;24.85;41.80;99342.80;378639;105;1962051;-75
2021/08/12 06:54:40;;;;;;;11.40;3.17;;;;;;;25.06;41.69;99352.31;385161;106;1986031;-76
2021/08/12 06:55:46;;;;;;;11.29;3.57;;;;;;;24.90;41.60;99337.16;367185;109;1961834;-76
2021/08/12 06:56:52;;;;;;;7.53;3.09;;;;;;;24.79;41.89;99337.41;337819;109;2523034;-75
2021/08/12 06:57:58;;;;;;;11.56;3.64;;;;;;;24.83;41.60;99332.08;336627;109;1960943;-76
2021/08/12 06:59:10;;;;;;;8.16;3.19;;;;;;;25.14;41.27;99350.73;377339;108;2073979;-75
2021/08/12 07:00:17;;;;;;;10.58;3.17;;;;;;;24.87;41.19;99338.60;361954;110;1972038;-76
2021/08/12 07:01:22;;;;;;;13.66;3.33;;;;;;;24.72;41.43;99353.56;361267;111;1964009;-76
2021/08/12 07:02:34;;;;;;;11.58;3.58;;;;;;;25.00;41.07;99359.06;399128;101;2072049;-72
2021/08/12 07:03:40;;;;;;;10.57;3.39;;;;;;;24.90;40.37;99357.34;377755;106;1970037;-72
2021/08/12 07:04:53;;;;;;;14.24;3.63;;;;;;;25.03;40.29;99363.96;397697;103;1985969;-73
2021/08/12 07:05:58;;;;;;;16.23;3.88;;;;;;;24.97;40.30;99354.16;378578;107;1961971;-71
2021/08/12 07:07:22;;;;;;;12.97;3.90;;;;;;;25.01;40.43;99346.89;381790;105;1964041;-74
2021/08/12 07:08:35;;;;;;;12.93;3.26;;;;;;;25.32;39.81;99355.33;385938;104;2846040;-72
2021/08/12 07:09:40;;;;;;;6.22;2.58;;;;;;;25.25;40.01;99345.86;335050;106;2035025;-72
2021/08/12 07:10:47;;;;;;;9.18;3.35;;;;;;;25.27;39.73;99352.71;374588;107;1961967;-72
2021/08/12 07:11:52;;;;;;;7.80;3.41;;;;;;;25.34;39.66;99350.31;378099;106;1961980;-71
2021/08/12 07:13:05;;;;;;;8.27;2.77;;;;;;;25.47;39.79;99358.89;397394;101;1986018;-72
2021/08/12 07:14:11;;;;;;;7.79;3.26;;;;;;;25.41;39.62;99342.41;312246;110;2161054;-72
2021/08/12 07:15:24;;;;;;;7.21;2.73;;;;;;;25.64;39.42;99348.79;392833;104;1963022;-71
2021/08/12 07:16:32;;;;;;;6.18;2.89;;;;;;;25.57;39.33;99353.94;334736;108;2584953;-71
2021/08/12 07:17:44;;;;;;;8.81;3.37;;;;;;;25.83;39.36;99345.02;388427;106;2071961;-72
2021/08/12 07:18:49;;;;;;;12.04;3.81;;;;;;;25.72;39.31;99361.06;368557;108;1961960;-73
2021/08/12 07:20:13;;;;;;;14.50;4.00;;;;;;;25.76;39.51;99352.94;332058;109;1999045;-73
2021/08/12 07:21:28;;;;;;;6.34;2.65;;;;;;;25.91;39.37;99352.59;339335;106;2821990;-73
2021/08/12 07:22:36;;;;;;;6.35;3.03;;;;;;;25.89;39.13;99357.61;366556;109;1963092;-73
2021/08/12 07:23:48;;;;;;;10.31;3.44;;;;;;;26.14;39.10;99345.05;361403;103;2598976;-72
2021/08/12 07:24:55;;;;;;;7.83;2.96;;;;;;;26.10;38.67;99353.19;374469;107;1961058;-72
2021/08/12 07:26:00;;;;;;;8.66;3.48;;;;;;;26.09;38.80;99357.10;373496;105;1962028;-71
2021/08/12 07:27:05;;;;;;;7.31;3.25;;;;;;;25.98;38.89;99350.17;375284;106;1963979;-73
2021/08/12 07:28:12;;;;;;;8.16;3.17;;;;;;;25.97;39.05;99359.62;373443;107;1962055;-74
2021/08/12 07:29:19;;;;;;;18.71;3.14;;;;;;;26.17;38.83;99355.52;372890;109;1962098;-73
2021/08/12 07:30:27;;;;;;;6.94;2.96;;;;;;;26.25;38.47;99378.83;371400;108;1961991;-73
2021/08/12 07:31:40;;;;;;;9.35;3.11;;;;;;;26.33;38.71;99367.00;403174;101;1986982;-72
2021/08/12 07:32:46;;;;;;;12.03;2.86;;;;;;;26.16;38.54;99362.17;368186;104;1962031;-72
2021/08/12 07:33:59;;;;;;;13.86;3.74;;;;;;;26.31;38.44;99361.77;402875;101;2071008;-76
2021/08/12 07:35:06;;;;;;;13.43;4.10;;;;;;;26.31;38.22;99380.34;387376;103;1968993;-76
2021/08/12 07:36:34;;;;;;;9.37;3.06;;;;;;;26.33;38.08;99369.77;342236;103;2778071;-76
2021/08/12 07:37:39;;;;;;;11.49;3.72;;;;;;;26.34;37.78;99370.58;386435;105;1962047;-74
2021/08/12 07:38:52;;;;;;;7.64;3.01;;;;;;;26.28;37.97;99365.18;378889;106;2866995;-77
2021/08/12 07:39:59;;;;;;;11.95;3.25;;;;;;;26.09;38.24;99362.64;364317;108;1962000;-76
2021/08/12 07:41:12;;;;;;;12.11;4.03;;;;;;;26.19;37.96;99371.80;381262;109;1986908;-75
2021/08/12 07:42:21;;;;;;;17.56;3.63;;;;;;;25.98;38.29;99366.78;323089;109;2442004;-75
2021/08/12 07:43:45;;;;;;;12.26;3.24;;;;;;;25.93;38.29;99368.86;353145;112;1962920;-76
2021/08/12 07:44:51;;;;;;;10.96;3.31;;;;;;;26.18;37.87;99361.87;354007;113;1962045;-76
2021/08/12 07:46:05;;;;;;;5.97;2.87;;;;;;;26.35;37.76;99350.86;353275;106;2054015;-75
2021/08/12 07:47:10;;;;;;;6.54;2.87;;;;;;;26.12;37.59;99371.42;368443;109;1968992;-76
2021/08/12 07:48:16;;;;;;;7.80;2.91;;;;;;;25.75;38.32;99354.89;365150;108;1961888;-75
2021/08/12 07:49:29;;;;;;;8.93;3.03;;;;;;;26.06;38.27;99354.94;379486;108;1986019;-76
2021/08/12 07:50:35;;;;;;;12.16;3.59;;;;;;;25.98;38.41;99365.97;342419;112;2859965;-73
2021/08/12 07:51:48;;;;;;;4.80;2.64;;;;;;;26.31;38.29;99353.47;395385;104;1986020;-72
2021/08/12 07:52:54;;;;;;;6.27;2.78;;;;;;;26.27;38.00;99352.45;371818;108;1961962;-72
2021/08/12 07:54:18;;;;;;;8.46;3.52;;;;;;;26.37;37.75;99358.87;365745;110;1961991;-71
2021/08/12 07:55:31;;;;;;;9.82;3.43;;;;;;;26.57;37.71;99351.96;378493;106;2984851;-72
2021/08/12 07:56:37;;;;;;;9.45;2.71;;;;;;;26.47;37.77;99353.86;338275;108;1981826;-72
2021/08/12 07:57:43;;;;;;;7.76;2.41;;;;;;;26.45;38.05;99350.59;367256;109;1962658;-72
2021/08/12 07:58:49;;;;;;;10.08;2.68;;;;;;;26.34;37.85;99353.97;358483;112;1960814;-72
2021/08/12 07:59:54;;;;;;;16.76;3.65;;;;;;;26.33;37.74;99344.85;356376;110;1961969;-73
2021/08/12 08:01:07;;;;;;;12.72;3.08;;;;;;;26.41;38.24;99354.31;397717;103;1984862;-73
2021/08/12 08:02:15;;;;;;;18.42;3.50;;;;;;;26.17;37.51;99374.90;327264;106;2820755;-73
2021/08/12 08:03:21;;;;;;;16.62;3.98;;;;;;;26.30;37.18;99353.77;372324;107;1960914;-72
2021/08/12 08:04:27;;;;;;;15.41;3.54;;;;;;;26.32;36.99;99359.81;372546;107;1960807;-72
2021/08/12 08:05:33;;;;;;;11.80;3.40;;;;;;;26.47;36.81;99358.59;367977;109;1960808;-73
2021/08/12 08:07:05;;;;;;;15.59;3.06;;;;;;;26.37;36.92;99369.94;380171;108;1987854;-73
2021/08/12 08:08:10;;;;;;;10.47;3.13;;;;;;;26.00;36.90;99294.52;353867;111;1964082;-73
2021/08/12 08:09:15;;;;;;;7.06;2.37;;;;;;;26.34;37.07;99363.09;357627;112;1962711;-73
2021/08/12 08:10:28;;;;;;;7.98;2.77;;;;;;;26.41;36.93;99371.77;384559;106;1984695;-72
2021/08/12 08:11:33;;;;;;;8.33;2.58;;;;;;;26.44;36.78;99367.55;366493;108;1960861;-72
2021/08/12 08:12:40;;;;;;;8.66;2.53;;;;;;;26.59;36.65;99369.90;366440;109;1960790;-73
2021/08/12 08:13:53;;;;;;;6.79;2.11;;;;;;;26.84;35.71;99371.14;393812;103;1993986;-73
2021/08/12 08:14:58;;;;;;;14.10;3.39;;;;;;;26.61;35.87;99367.63;376185;108;1962005;-73
2021/08/12 08:16:11;;;;;;;10.11;2.81;;;;;;;26.78;36.02;99361.36;377700;106;2963146;-73
2021/08/12 08:17:17;;;;;;;6.82;2.46;;;;;;;26.63;35.82;99372.87;334566;109;2574955;-73
2021/08/12 08:18:41;;;;;;;8.52;2.46;;;;;;;26.50;35.95;99378.15;350071;113;1963943;-73
2021/08/12 08:19:55;;;;;;;10.43;2.54;;;;;;;26.51;35.54;99374.27;391141;104;1964084;-73
2021/08/12 08:21:02;;;;;;;31.84;5.47;;;;;;;26.51;35.35;99385.34;375105;107;1964026;-73
2021/08/12 08:22:14;;;;;;;19.21;3.37;;;;;;;26.57;35.35;99363.04;390740;104;2072017;-73
2021/08/12 08:23:20;;;;;;;6.27;2.21;;;;;;;26.76;35.33;99360.85;373777;107;1962980;-73
2021/08/12 08:24:44;;;;;;;12.27;2.98;;;;;;;26.77;34.69;99372.75;330454;107;2890934;-73
2021/08/12 08:25:56;;;;;;;13.20;3.24;;;;;;;26.74;34.75;99388.05;387123;106;1972989;-73
2021/08/12 08:27:02;;;;;;;21.26;3.86;;;;;;;26.64;34.42;99368.95;366509;109;1963000;-72
2021/08/12 08:28:15;;;;;;;15.11;3.63;;;;;;;26.77;34.68;99381.06;343978;106;2485045;-73
2021/08/12 08:29:20;;;;;;;10.23;2.65;;;;;;;26.68;34.66;99379.08;328098;111;2020984;-72
2021/08/12 08:30:46;;;;;;;5.16;2.27;;;;;;;26.69;34.70;99393.74;340325;110;1962033;-72
2021/08/12 08:31:52;;;;;;;5.86;2.02;;;;;;;26.68;34.77;99375.49;360199;110;1961981;-73
2021/08/12 08:32:58;;;;;;;4.16;1.84;;;;;;;26.73;34.68;99367.85;359615;110;1961915;-73
2021/08/12 08:34:03;;;;;;;5.83;2.36;;;;;;;26.85;34.62;99371.95;362127;110;1961943;-73
2021/08/12 08:35:16;;;;;;;8.02;2.64;;;;;;;26.91;34.87;99376.20;391276;106;1986002;-74
2021/08/12 08:36:23;;;;;;;10.19;2.84;;;;;;;26.72;35.11;99388.37;311685;108;2208021;-73
2021/08/12 08:37:28;;;;;;;22.27;3.24;;;;;;;26.83;35.20;99365.91;355802;110;1962805;-72
2021/08/12 08:38:40;;;;;;;14.48;2.82;;;;;;;26.94;35.63;99367.27;392104;104;1985994;-73
2021/08/12 08:39:46;;;;;;;7.07;2.42;;;;;;;26.91;34.95;99378.97;374703;107;1961965;-73
2021/08/12 08:41:00;;;;;;;21.92;3.57;;;;;;;27.14;34.84;99374.14;336494;103;2280035;-71
2021/08/12 08:42:08;;;;;;;8.99;2.56;;;;;;;26.77;35.04;99358.89;373808;107;1969969;-72
2021/08/12 08:43:29;;;;;;;15.22;2.71;;;;;;;27.06;34.40;99377.72;383278;106;1985971;-72
2021/08/12 08:44:36;;;;;;;8.18;2.73;;;;;;;26.93;34.78;99365.62;334679;109;2525014;-73
2021/08/12 08:46:08;;;;;;;17.37;3.36;;;;;;;27.06;34.73;99366.63;296527;109;2408047;-72
2021/08/12 08:47:15;;;;;;;9.38;3.26;;;;;;;27.15;34.81;99372.99;373027;109;1961957;-72
2021/08/12 08:48:23;;;;;;;7.13;2.43;;;;;;;27.12;34.49;99381.96;342199;109;1967929;-73
2021/08/12 08:49:42;;;;;;;23.49;3.09;;;;;;;27.08;34.15;99415.07;340874;104;2255813;-73
2021/08/12 08:50:48;;;;;;;19.57;3.15;;;;;;;26.78;34.12;99397.38;372784;105;1964038;-73
2021/08/12 08:52:01;;;;;;;15.96;2.61;;;;;;;27.10;33.81;99387.03;397961;104;1966914;-73
2021/08/12 08:53:08;;;;;;;15.11;3.14;;;;;;;26.88;34.55;99372.12;335493;105;2888974;-76
2021/08/12 08:54:33;;;;;;;9.54;2.35;;;;;;;26.90;34.68;99386.48;325413;105;2873061;-75
2021/08/12 08:55:38;;;;;;;9.29;3.13;;;;;;;26.96;34.71;99374.13;375436;105;1961951;-76
2021/08/12 08:56:45;;;;;;;10.98;2.89;;;;;;;27.08;34.63;99379.03;376718;106;1962864;-75
2021/08/12 08:57:57;;;;;;;6.05;2.59;;;;;;;27.14;34.35;99397.14;377307;107;1961994;-75
2021/08/12 08:59:10;;;;;;;17.24;2.90;;;;;;;27.06;34.38;99378.53;384762;106;1987017;-76
2021/08/12 09:00:19;;;;;;;8.04;2.23;;;;;;;26.99;34.59;99397.58;367589;107;1961957;-75
2021/08/12 09:01:31;;;;;;;7.31;2.99;;;;;;;27.19;34.40;99372.06;387565;106;1987083;-76
2021/08/12 09:02:37;;;;;;;5.08;2.28;;;;;;;27.09;34.62;99386.20;365146;109;1963851;-76
2021/08/12 09:04:01;;;;;;;9.18;2.53;;;;;;;27.12;34.13;99381.96;365158;110;1962096;-75
2021/08/12 09:05:07;;;;;;;12.98;3.29;;;;;;;27.21;34.20;99374.52;366606;110;1961987;-77
2021/08/12 09:06:21;;;;;;;5.43;1.92;;;;;;;27.49;34.00;99391.66;342907;106;2890068;-75
2021/08/12 09:07:27;;;;;;;7.69;2.71;;;;;;;27.43;34.05;99392.16;321270;108;2108913;-73
2021/08/12 09:08:32;;;;;;;8.06;2.83;;;;;;;27.19;33.85;99379.57;364369;111;1962090;-75
2021/08/12 09:09:44;;;;;;;8.40;2.55;;;;;;;27.36;33.85;99385.16;395439;104;1986036;-73
2021/08/12 09:10:51;;;;;;;5.72;2.44;;;;;;;27.31;33.97;99401.11;376741;106;1961863;-75
2021/08/12 09:11:56;;;;;;;9.72;2.84;;;;;;;27.34;33.97;99381.07;375113;107;1961916;-75
2021/08/12 09:13:05;;;;;;;7.55;2.52;;;;;;;27.42;33.95;99405.23;324761;106;2890928;-74
2021/08/12 09:14:34;;;;;;;11.04;3.18;;;;;;;27.48;33.92;99375.36;375780;106;1962018;-74
2021/08/12 09:15:46;;;;;;;7.14;2.93;;;;;;;27.39;33.30;99397.56;377613;108;1987001;-74
2021/08/12 09:16:52;;;;;;;12.20;3.68;;;;;;;27.23;33.32;99383.34;359864;111;1961959;-75
2021/08/12 09:17:58;;;;;;;18.29;3.69;;;;;;;27.16;33.49;99369.91;340162;113;2870038;-74
2021/08/12 09:19:22;;;;;;;11.13;2.81;;;;;;;27.61;32.71;99375.20;390170;104;2070852;-75
2021/08/12 09:20:31;;;;;;;6.19;2.32;;;;;;;27.53;32.52;99389.08;373264;107;1962034;-75
2021/08/12 09:21:44;;;;;;;13.11;3.94;;;;;;;27.53;32.53;99419.59;397161;104;1986031;-75
2021/08/12 09:23:10;;;;;;;9.33;3.11;;;;;;;27.34;32.25;99378.30;335050;105;2873903;-74
2021/08/12 09:24:22;;;;;;;32.01;7.12;;;;;;;27.35;32.65;99391.02;396675;104;1986070;-75
2021/08/12 09:25:34;;;;;;;21.43;5.98;;;;;;;27.38;32.61;99382.84;377398;106;1963066;-78
2021/08/12 09:27:01;;;;;;;15.42;4.54;;;;;;;27.60;32.08;99398.55;374712;105;1965049;-77
2021/08/12 09:28:27;;;;;;;26.93;5.51;;;;;;;28.01;32.04;99390.87;395995;104;1986837;-75
2021/08/12 09:29:33;;;;;;;12.04;3.16;;;;;;;27.64;31.62;99362.63;315957;105;2272039;-76
2021/08/12 09:30:51;;;;;;;19.04;4.17;;;;;;;27.40;31.99;99382.53;385850;106;2071924;-76
2021/08/12 09:32:05;;;;;;;20.32;3.59;;;;;;;27.33;31.59;99402.42;410079;101;1986032;-76
2021/08/12 09:33:18;;;;;;;15.77;3.94;;;;;;;27.50;31.72;99386.96;387172;103;1963982;-75
2021/08/12 09:34:24;;;;;;;13.76;3.59;;;;;;;27.65;31.22;99411.42;313072;103;2368040;-76
2021/08/12 09:35:30;;;;;;;10.47;2.78;;;;;;;27.65;31.28;99399.52;390985;103;1963984;-75
2021/08/12 09:36:42;;;;;;;6.60;2.42;;;;;;;27.77;30.63;99400.50;386027;106;1986835;-76
2021/08/12 09:37:47;;;;;;;9.73;3.12;;;;;;;27.77;30.64;99386.63;369675;109;1962911;-76
2021/08/12 09:39:18;;;;;;;12.36;2.96;;;;;;;27.82;30.73;99386.48;377428;109;1986893;-75
2021/08/12 09:40:25;;;;;;;11.86;3.59;;;;;;;27.73;30.80;99379.27;359935;110;1961995;-74
2021/08/12 09:41:43;;;;;;;8.36;2.88;;;;;;;27.81;30.40;99390.42;392864;104;1987014;-75
2021/08/12 09:42:57;;;;;;;9.13;2.77;;;;;;;27.89;30.41;99387.94;368868;109;1964074;-76
2021/08/12 09:44:42;;;;;;;6.25;2.72;;;;;;;27.83;29.80;99409.50;360670;110;1962066;-74
2021/08/12 09:45:58;;;;;;;9.07;3.54;;;;;;;27.97;30.12;99370.45;397680;104;1986014;-76
2021/08/12 09:47:08;;;;;;;7.49;2.61;;;;;;;28.08;29.90;99391.20;379338;105;1962025;-76
2021/08/12 09:48:21;;;;;;;6.63;2.82;;;;;;;27.73;29.89;99345.96;380549;108;1987047;-75
2021/08/12 09:49:49;;;;;;;10.03;3.01;;;;;;;27.90;30.10;99401.50;378918;104;1965982;-75
2021/08/12 09:51:03;;;;;;;6.22;2.44;;;;;;;28.15;29.75;99383.16;388474;106;1985833;-75
2021/08/12 09:52:32;;;;;;;10.42;2.56;;;;;;;28.14;29.58;99384.31;364397;111;1962060;-75
2021/08/12 09:53:45;;;;;;;7.89;2.63;;;;;;;28.40;29.33;99369.55;346113;108;2666028;-75
2021/08/12 09:54:56;;;;;;;8.81;3.19;;;;;;;28.39;29.44;99384.57;322968;113;2035028;-76
2021/08/12 09:56:24;;;;;;;7.58;2.91;;;;;;;28.21;29.28;99375.47;309882;115;2827993;-75
2021/08/12 09:57:42;;;;;;;10.84;2.86;;;;;;;28.61;29.12;99373.26;384516;104;1985996;-75
2021/08/12 09:58:48;;;;;;;7.83;2.74;;;;;;;28.61;29.17;99380.78;363400;112;1960868;-75
2021/08/12 10:00:01;;;;;;;8.75;3.25;;;;;;;28.52;28.97;99377.20;396003;104;2071989;-76
2021/08/12 10:01:19;;;;;;;14.91;4.30;;;;;;;28.18;28.81;99399.19;377913;105;1961900;-76
2021/08/12 10:02:43;;;;;;;16.16;4.17;;;;;;;28.14;29.12;99392.65;310984;107;2421837;-76
2021/08/12 10:03:51;;;;;;;16.42;3.83;;;;;;;28.28;29.20;99381.34;371355;107;1961813;-75
2021/08/12 10:05:07;;;;;;;14.83;3.46;;;;;;;28.59;29.16;99366.40;388508;106;1984842;-76
2021/08/12 10:06:27;;;;;;;13.21;2.91;;;;;;;28.34;29.40;99373.64;367819;110;1960890;-75
2021/08/12 10:07:45;;;;;;;9.71;2.69;;;;;;;28.53;29.16;99374.11;398553;103;1985952;-75
2021/08/12 10:08:52;;;;;;;12.19;3.69;;;;;;;28.29;28.92;99388.54;368490;109;1962943;-76
2021/08/12 10:10:19;;;;;;;8.32;2.97;;;;;;;28.59;28.90;99369.98;304370;109;2356273;-76
2021/08/12 10:11:29;;;;;;;12.94;2.98;;;;;;;28.44;29.07;99379.67;339296;109;2026915;-78
2021/08/12 10:12:35;;;;;;;11.11;3.15;;;;;;;28.49;29.10;99387.84;368861;103;1962006;-76
2021/08/12 10:13:42;;;;;;;10.43;3.43;;;;;;;28.51;29.01;99383.92;330202;107;2875973;-76
2021/08/12 10:14:48;;;;;;;12.90;2.91;;;;;;;28.72;28.51;99387.59;363496;111;1963111;-77
2021/08/12 10:15:54;;;;;;;13.72;3.21;;;;;;;28.71;28.54;99402.62;366415;111;1961834;-76
2021/08/12 10:17:07;;;;;;;6.91;3.00;;;;;;;29.20;28.08;99375.25;396451;104;2071894;-76
2021/08/12 10:18:12;;;;;;;6.34;2.48;;;;;;;29.09;27.94;99371.24;378849;106;1962984;-76
2021/08/12 10:19:25;;;;;;;8.17;3.43;;;;;;;29.27;28.05;99371.95;393012;106;2072960;-74
2021/08/12 10:20:36;;;;;;;6.67;2.62;;;;;;;29.11;28.17;99377.29;377796;107;1962064;-77
2021/08/12 10:21:42;;;;;;;8.82;2.84;;;;;;;28.87;28.09;99388.98;371352;109;1962006;-76
2021/08/12 10:22:57;;;;;;;11.51;3.59;;;;;;;28.93;28.28;99384.88;360816;104;2588950;-75
2021/08/12 10:24:03;;;;;;;15.21;3.59;;;;;;;28.90;28.33;99388.34;368369;109;1961999;-76
2021/08/12 10:25:17;;;;;;;13.12;3.62;;;;;;;29.06;28.17;99385.83;362224;104;2709904;-75
2021/08/12 10:26:26;;;;;;;10.34;2.96;;;;;;;28.91;28.27;99389.95;385989;105;1969947;-76
2021/08/12 10:27:53;;;;;;;12.66;2.91;;;;;;;28.92;27.88;99400.75;383819;105;1962966;-76
2021/08/12 10:29:05;;;;;;;10.11;3.32;;;;;;;29.11;28.11;99388.41;377223;107;1962046;-76
2021/08/12 10:30:12;;;;;;;20.77;3.38;;;;;;;28.79;28.40;99384.28;369999;107;2937915;-76
2021/08/12 10:31:24;;;;;;;18.83;3.78;;;;;;;29.04;28.49;99386.14;338565;107;2549019;-76
2021/08/12 10:32:36;;;;;;;15.70;3.87;;;;;;;29.00;28.07;99373.21;374654;108;1961959;-76
2021/08/12 10:33:43;;;;;;;7.57;3.06;;;;;;;29.04;28.18;99430.64;375767;106;1962020;-76
2021/08/12 10:34:49;;;;;;;18.87;3.66;;;;;;;28.94;28.11;99406.77;328045;106;2214929;-76
2021/08/12 10:36:02;;;;;;;18.97;3.81;;;;;;;29.07;27.91;99393.00;384828;108;2072058;-76
2021/08/12 10:37:10;;;;;;;11.31;3.13;;;;;;;29.12;28.07;99385.28;361790;107;1961806;-80
2021/08/12 10:38:16;;;;;;;17.56;4.26;;;;;;;29.07;28.02;99373.53;324548;117;1961803;-79
2021/08/12 10:39:22;;;;;;;14.85;3.29;;;;;;;29.06;27.49;99375.51;346504;117;1962865;-80
2021/08/12 10:40:31;;;;;;;15.46;3.73;;;;;;;29.23;27.12;99379.33;346283;117;1961954;-79
2021/08/12 10:41:46;;;;;;;15.55;3.77;;;;;;;29.50;27.18;99378.78;384630;106;1986062;-76
2021/08/12 10:42:52;;;;;;;9.98;2.70;;;;;;;29.40;27.10;99389.51;356605;110;2891839;-76
2021/08/12 10:43:59;;;;;;;12.16;3.18;;;;;;;29.29;26.92;99392.69;321374;110;2141026;-76
2021/08/12 10:45:24;;;;;;;19.63;3.44;;;;;;;29.58;27.12;99386.28;400214;103;1987987;-76
2021/08/12 10:46:37;;;;;;;15.54;3.26;;;;;;;29.52;27.03;99386.80;371978;108;1961976;-76
2021/08/12 10:47:55;;;;;;;11.62;3.08;;;;;;;29.65;27.31;99408.02;397622;104;1986954;-77
2021/08/12 10:49:25;;;;;;;7.74;2.74;;;;;;;29.48;27.25;99391.41;368896;108;1961897;-76
2021/08/12 10:50:44;;;;;;;12.75;2.98;;;;;;;29.74;27.47;99386.47;383400;108;1985949;-76
2021/08/12 10:52:08;;;;;;;12.26;2.52;;;;;;;29.56;27.64;99401.69;328015;111;2879862;-76
2021/08/12 10:53:32;;;;;;;7.65;2.56;;;;;;;29.41;27.32;99417.01;351029;115;1961850;-76
2021/08/12 10:54:44;;;;;;;10.09;2.67;;;;;;;29.53;27.20;99389.27;386303;106;2070917;-76
2021/08/12 10:56:01;;;;;;;11.83;2.66;;;;;;;29.38;27.06;99406.56;364893;111;1969010;-77
2021/08/12 10:57:22;;;;;;;11.93;3.09;;;;;;;29.40;26.77;99393.13;399049;103;1984754;-77
2021/08/12 10:58:33;;;;;;;20.01;2.93;;;;;;;29.43;26.82;99411.12;325561;107;2181760;-77
2021/08/12 10:59:57;;;;;;;17.15;3.47;;;;;;;29.39;27.17;99377.56;372846;109;1960810;-77
2021/08/12 11:01:12;;;;;;;10.58;3.48;;;;;;;29.70;27.47;99381.95;389333;106;1961979;-75
2021/08/12 11:02:32;;;;;;;17.09;3.39;;;;;;;29.57;27.30;99401.33;320027;111;2809906;-75
2021/08/12 11:03:47;;;;;;;14.13;2.91;;;;;;;29.45;26.99;99389.30;399423;104;1985932;-76